Time;durP1;ratioP1;P1;durP2;ratioP2;P2;SDS_P1;SDS_P2;PMS_P1;PMS_P2;Temp;Humidity;BMP_temperature;BMP_pressure;BME280_temperature;BME280_humidity;BME280_pressure;Samples;Min_cycle;Max_cycle;Signal;HPM_P1;HPM_P2
2023/10/27 00:00:06;;;;;;;;;;;;;;;14.34;100.00;98600.38;328658;29;2211;-76
2023/10/27 00:00:16;;;;;;;;;;;;;;;14.36;100.00;98595.00;327890;30;2267;-76
2023/10/27 00:00:27;;;;;;;;;;;;;;;14.36;100.00;98597.66;328107;30;1301;-76
2023/10/27 00:00:37;;;;;;;;;;;;;;;14.36;100.00;98597.66;328899;29;2262;-76
2023/10/27 00:00:47;;;;;;;;;;;;;;;14.33;100.00;98596.91;328114;29;2444;-75
2023/10/27 00:00:57;;;;;;;;;;;;;;;14.35;100.00;98602.06;330457;29;1324;-75
2023/10/27 00:01:08;;;;;;;;;;;;;;;14.36;100.00;98601.13;327894;29;1807;-76
2023/10/27 00:01:18;;;;;;;;;;;;;;;14.38;100.00;98603.63;325605;30;1374;-76
2023/10/27 00:01:28;;;;;;;;;;;;;;;14.39;100.00;98597.41;327036;30;1093;-75
2023/10/27 00:01:38;;;;;;;;;;;;;;;14.39;100.00;98597.41;319224;30;1834;-76
2023/10/27 00:01:49;;;;;;;;;;;;;;;14.41;100.00;98600.78;317192;30;2567;-76
2023/10/27 00:01:59;;;;;;;;;;;;;;;14.41;100.00;98606.06;316298;31;1346;-76
2023/10/27 00:02:09;;;;;;;;;;;;;;;14.41;100.00;98592.88;317661;30;3060;-76
2023/10/27 00:02:20;;;;;;;;;;;;;;;14.41;100.00;98600.78;319447;30;3477;-75
2023/10/27 00:02:31;;;;;;;;;;;;;;;14.43;100.00;98596.28;320675;30;1543;-75
2023/10/27 00:02:41;;;;;;;;;;;;;;;14.43;100.00;98593.66;315712;30;3497;-76
2023/10/27 00:02:51;;;;;;;;;;;;;;;14.43;100.00;98596.28;316855;30;3195;-76
2023/10/27 00:03:02;;;;;;;;;;;;;;;14.40;100.00;98589.41;320464;30;2945;-75
2023/10/27 00:03:12;;;;;;;;;;;;;;;14.41;100.00;98595.53;318583;31;1389;-76
2023/10/27 00:03:22;;;;;;;;;;;;;;;14.42;100.00;98597.22;317072;31;2500;-76
2023/10/27 00:03:32;;;;;;;;;;;;;;;14.39;100.00;98592.16;314901;31;2162;-75
2023/10/27 00:03:43;;;;;;;;;;;;;;;14.39;100.00;98592.16;315942;31;1390;-75
2023/10/27 00:03:54;;;;;;;;;;;;;;;14.40;100.00;98596.47;312602;31;2570;-75
2023/10/27 00:04:05;;;;;;;;;;;;;;;14.39;100.00;98589.53;310111;31;3461;-75
2023/10/27 00:04:15;;;;;;;;;;;;;;;14.40;100.00;98591.22;310755;31;1399;-75
2023/10/27 00:04:26;;;;;;;;;;;;;;;14.38;100.00;98588.69;308536;31;4219;-76
2023/10/27 00:04:36;;;;;;;;;;;;;;;14.38;100.00;98588.69;307634;31;4349;-76
2023/10/27 00:04:46;;;;;;;;;;;;;;;14.40;100.00;98588.56;305859;32;1175;-76
2023/10/27 00:04:56;;;;;;;;;;;;;;;14.39;100.00;98593.00;302767;32;4553;-75
2023/10/27 00:05:07;;;;;;;;;;;;;;;14.39;100.00;98592.16;300322;32;4610;-75
2023/10/27 00:05:17;;;;;;;;;;;;;;;14.38;100.00;98591.31;300809;32;4272;-75
2023/10/27 00:05:27;;;;;;;;;;;;;;;14.38;100.00;98590.47;301227;32;1292;-75
2023/10/27 00:05:37;;;;;;;;;;;;;;;14.39;100.00;98589.53;299162;32;3450;-76
2023/10/27 00:05:48;;;;;;;;;;;;;;;14.41;100.00;98595.53;296385;33;3351;-76
2023/10/27 00:05:58;;;;;;;;;;;;;;;14.40;100.00;98589.41;295991;33;1303;-75
2023/10/27 00:06:08;;;;;;;;;;;;;;;14.40;100.00;98591.22;296007;33;3800;-75
2023/10/27 00:06:19;;;;;;;;;;;;;;;14.39;100.00;98587.72;294461;33;5921;-75
2023/10/27 00:06:32;;;;;;;;;;;;;;;14.41;100.00;98590.25;289592;34;1232;-75
2023/10/27 00:06:45;;;;;;;;;;;;;;;14.40;100.00;98588.56;288311;34;1295;-75
2023/10/27 00:06:55;;;;;;;;;;;;;;;14.41;100.00;98592.88;287204;34;6137;-75
2023/10/27 00:07:05;;;;;;;;;;;;;;;14.39;100.00;98595.63;287264;33;6484;-75
2023/10/27 00:07:16;;;;;;;;;;;;;;;14.39;100.00;98586.88;290267;34;2749;-75
2023/10/27 00:07:26;;;;;;;;;;;;;;;14.39;100.00;98597.41;289073;34;5859;-75
2023/10/27 00:07:36;;;;;;;;;;;;;;;14.39;100.00;98598.25;289181;33;5982;-75
2023/10/27 00:07:47;;;;;;;;;;;;;;;14.40;100.00;98593.84;289239;34;4939;-75
2023/10/27 00:07:57;;;;;;;;;;;;;;;14.38;100.00;98591.31;289215;34;1340;-75
2023/10/27 00:08:08;;;;;;;;;;;;;;;14.39;100.00;98589.53;285766;34;6057;-75
2023/10/27 00:08:18;;;;;;;;;;;;;;;14.38;100.00;98585.22;280894;34;6787;-75
2023/10/27 00:08:29;;;;;;;;;;;;;;;14.38;100.00;98588.69;282750;35;1346;-75
2023/10/27 00:08:39;;;;;;;;;;;;;;;14.37;100.00;98589.63;283434;34;6970;-76
2023/10/27 00:08:49;;;;;;;;;;;;;;;14.38;100.00;98587.84;279624;35;9354;-75
2023/10/27 00:09:00;;;;;;;;;;;;;;;14.37;100.00;98588.78;276737;35;2034;-75
2023/10/27 00:09:10;;;;;;;;;;;;;;;14.36;100.00;98592.38;275870;35;8986;-75
2023/10/27 00:09:20;;;;;;;;;;;;;;;14.36;100.00;98587.13;273595;35;9833;-75
2023/10/27 00:09:32;;;;;;;;;;;;;;;14.35;100.00;98585.44;275803;35;880;-76
2023/10/27 00:11:11;;;;;;;;;;;;;;;14.35;100.00;98585.44;2495573;27;19927;-74
2023/10/27 00:11:22;;;;;;;;;;;;;;;14.35;100.00;98591.53;355443;27;1351;-75
2023/10/27 00:11:32;;;;;;;;;;;;;;;14.32;100.00;98587.34;351445;28;1201;-75
2023/10/27 00:11:42;;;;;;;;;;;;;;;14.33;100.00;98593.44;350717;28;1352;-75
2023/10/27 00:11:52;;;;;;;;;;;;;;;14.32;100.00;98592.59;348892;28;1210;-75
2023/10/27 00:12:03;;;;;;;;;;;;;;;14.30;100.00;98588.41;347477;28;1335;-75
2023/10/27 00:12:13;;;;;;;;;;;;;;;14.29;100.00;98587.59;349061;28;851;-75
2023/10/27 00:12:24;;;;;;;;;;;;;;;14.28;100.00;98583.28;350291;28;1262;-75
2023/10/27 00:12:34;;;;;;;;;;;;;;;14.26;100.00;98587.81;351799;28;906;-75
2023/10/27 00:12:44;;;;;;;;;;;;;;;14.28;100.00;98585.06;349542;28;1278;-75
2023/10/27 00:12:54;;;;;;;;;;;;;;;14.27;100.00;98584.22;348890;28;1214;-74
2023/10/27 00:13:05;;;;;;;;;;;;;;;14.24;100.00;98594.97;350009;28;1424;-74
2023/10/27 00:13:15;;;;;;;;;;;;;;;14.25;100.00;98591.38;352912;28;1319;-74
2023/10/27 00:13:25;;;;;;;;;;;;;;;14.24;100.00;98589.72;348933;28;1383;-74
2023/10/27 00:13:35;;;;;;;;;;;;;;;14.24;100.00;98579.19;348916;28;1219;-74
2023/10/27 00:13:46;;;;;;;;;;;;;;;14.24;100.00;98587.06;347476;28;1496;-74
2023/10/27 00:13:56;;;;;;;;;;;;;;;14.25;100.00;98586.13;347447;28;1239;-74
2023/10/27 00:14:06;;;;;;;;;;;;;;;14.25;100.00;98580.88;348921;28;1648;-74
2023/10/27 00:14:16;;;;;;;;;;;;;;;14.26;100.00;98581.69;353216;28;1341;-74
2023/10/27 00:14:26;;;;;;;;;;;;;;;14.26;100.00;98587.81;353269;28;1070;-75
2023/10/27 00:14:37;;;;;;;;;;;;;;;14.25;100.00;98582.66;351807;28;1404;-75
2023/10/27 00:14:48;;;;;;;;;;;;;;;14.23;100.00;98585.41;351597;28;1342;-75
2023/10/27 00:14:58;;;;;;;;;;;;;;;14.22;100.00;98581.09;348725;28;1195;-74
2023/10/27 00:15:08;;;;;;;;;;;;;;;14.22;100.00;98583.72;347480;28;1258;-74
2023/10/27 00:15:19;;;;;;;;;;;;;;;14.22;100.00;98586.34;350075;28;1122;-75
2023/10/27 00:15:29;;;;;;;;;;;;;;;14.22;100.00;98591.59;351799;28;1214;-75
2023/10/27 00:15:39;;;;;;;;;;;;;;;14.22;100.00;98586.34;350109;28;1375;-74
2023/10/27 00:15:49;;;;;;;;;;;;;;;14.23;100.00;98589.81;350370;28;1298;-74
2023/10/27 00:16:00;;;;;;;;;;;;;;;14.22;100.00;98588.97;347436;28;1377;-75
2023/10/27 00:16:10;;;;;;;;;;;;;;;14.22;100.00;98591.59;348248;28;2665;-75
2023/10/27 00:16:20;;;;;;;;;;;;;;;14.22;100.00;98588.97;346970;28;3602;-76
2023/10/27 00:16:31;;;;;;;;;;;;;;;14.23;100.00;98593.28;346621;28;2833;-76
2023/10/27 00:16:42;;;;;;;;;;;;;;;14.23;100.00;98588.03;346534;28;1362;-76
2023/10/27 00:16:54;;;;;;;;;;;;;;;14.23;100.00;98592.44;347266;28;2915;-76
2023/10/27 00:17:04;;;;;;;;;;;;;;;14.25;100.00;98594.03;345956;28;1327;-76
2023/10/27 00:17:14;;;;;;;;;;;;;;;14.24;100.00;98594.97;344959;28;773;-76
2023/10/27 00:17:25;;;;;;;;;;;;;;;14.24;100.00;98589.72;344891;28;973;-75
2023/10/27 00:17:35;;;;;;;;;;;;;;;14.24;100.00;98589.72;344709;28;1169;-75
2023/10/27 00:17:45;;;;;;;;;;;;;;;14.25;100.00;98595.81;343456;28;1183;-75
2023/10/27 00:17:58;;;;;;;;;;;;;;;14.24;100.00;98594.13;344678;28;1173;-75
2023/10/27 00:18:08;;;;;;;;;;;;;;;14.23;100.00;98581.94;345748;28;1241;-75
2023/10/27 00:18:18;;;;;;;;;;;;;;;14.23;100.00;98593.28;344778;28;1336;-75
2023/10/27 00:18:28;;;;;;;;;;;;;;;14.21;100.00;98589.94;345052;28;891;-75
2023/10/27 00:18:38;;;;;;;;;;;;;;;14.21;100.00;98589.94;344905;28;886;-74
2023/10/27 00:18:49;;;;;;;;;;;;;;;14.20;100.00;98588.25;344333;28;884;-74
2023/10/27 00:18:59;;;;;;;;;;;;;;;14.20;100.00;98598.78;343285;28;1272;-74
2023/10/27 00:19:09;;;;;;;;;;;;;;;14.22;100.00;98591.59;344405;28;1284;-74
2023/10/27 00:19:19;;;;;;;;;;;;;;;14.19;100.00;98588.34;342018;28;1430;-74
2023/10/27 00:19:30;;;;;;;;;;;;;;;14.16;100.00;98592.03;342171;28;1132;-74
2023/10/27 00:19:40;;;;;;;;;;;;;;;14.16;100.00;98592.03;340580;28;1324;-74
2023/10/27 00:19:50;;;;;;;;;;;;;;;14.18;100.00;98587.50;341923;28;1532;-74
2023/10/27 00:20:01;;;;;;;;;;;;;;;14.18;100.00;98597.19;341823;28;1918;-74
2023/10/27 00:20:11;;;;;;;;;;;;;;;14.18;100.00;98589.31;341549;28;1309;-74
2023/10/27 00:20:22;;;;;;;;;;;;;;;14.17;100.00;98591.09;339257;28;1153;-75
2023/10/27 00:20:32;;;;;;;;;;;;;;;14.16;100.00;98589.41;338228;29;917;-75
2023/10/27 00:20:42;;;;;;;;;;;;;;;14.17;100.00;98593.72;339725;29;1340;-76
2023/10/27 00:20:52;;;;;;;;;;;;;;;14.17;100.00;98588.47;340609;29;1030;-75
2023/10/27 00:21:03;;;;;;;;;;;;;;;14.17;100.00;98582.38;339191;28;1435;-75
2023/10/27 00:21:13;;;;;;;;;;;;;;;14.18;100.00;98584.88;335660;29;1259;-75
2023/10/27 00:21:23;;;;;;;;;;;;;;;14.18;100.00;98587.50;335271;29;1972;-74
2023/10/27 00:21:33;;;;;;;;;;;;;;;14.18;100.00;98590.16;335632;29;1621;-77
2023/10/27 00:21:44;;;;;;;;;;;;;;;14.20;100.00;98593.50;337950;29;1197;-77
2023/10/27 00:21:54;;;;;;;;;;;;;;;14.21;100.00;98589.94;339708;29;2143;-74
2023/10/27 00:22:04;;;;;;;;;;;;;;;14.22;100.00;98590.78;336119;29;2106;-74
2023/10/27 00:22:14;;;;;;;;;;;;;;;14.24;100.00;98592.34;335744;29;857;-74
2023/10/27 00:22:25;;;;;;;;;;;;;;;14.25;100.00;98586.13;335458;29;1667;-75
2023/10/27 00:22:35;;;;;;;;;;;;;;;14.25;100.00;98594.03;336234;29;865;-76
2023/10/27 00:22:46;;;;;;;;;;;;;;;14.27;100.00;98589.50;336817;29;923;-77
2023/10/27 00:22:56;;;;;;;;;;;;;;;14.27;100.00;98594.75;334643;29;1225;-76
2023/10/27 00:23:06;;;;;;;;;;;;;;;14.27;100.00;98594.75;333179;29;1569;-76
2023/10/27 00:23:17;;;;;;;;;;;;;;;14.29;100.00;98592.84;331573;29;2003;-76
2023/10/27 00:23:28;;;;;;;;;;;;;;;14.27;100.00;98594.75;332543;29;1154;-76
2023/10/27 00:23:38;;;;;;;;;;;;;;;14.26;100.00;98587.81;330622;29;2233;-76
2023/10/27 00:23:49;;;;;;;;;;;;;;;14.27;100.00;98597.38;327509;30;2199;-76
2023/10/27 00:23:59;;;;;;;;;;;;;;;14.26;100.00;98598.34;328056;30;1233;-77
2023/10/27 00:24:09;;;;;;;;;;;;;;;14.27;100.00;98597.38;327459;30;2467;-76
2023/10/27 00:24:20;;;;;;;;;;;;;;;14.26;100.00;98590.44;326036;30;2720;-76
2023/10/27 00:24:30;;;;;;;;;;;;;;;14.26;100.00;98592.22;323285;30;1319;-76
2023/10/27 00:24:40;;;;;;;;;;;;;;;14.26;100.00;98595.69;323181;30;1926;-76
2023/10/27 00:24:51;;;;;;;;;;;;;;;14.27;100.00;98594.75;322839;30;1264;-76
2023/10/27 00:25:02;;;;;;;;;;;;;;;14.28;100.00;98601.69;322480;30;1763;-76
2023/10/27 00:25:12;;;;;;;;;;;;;;;14.28;100.00;98600.84;318627;31;1049;-75
2023/10/27 00:25:23;;;;;;;;;;;;;;;14.26;100.00;98597.50;319429;30;2951;-75
2023/10/27 00:25:33;;;;;;;;;;;;;;;14.25;100.00;98595.81;317866;30;4271;-75
2023/10/27 00:25:43;;;;;;;;;;;;;;;14.23;100.00;98593.28;316884;31;4601;-76
2023/10/27 00:25:54;;;;;;;;;;;;;;;14.24;100.00;98597.59;314549;31;3296;-77
2023/10/27 00:26:04;;;;;;;;;;;;;;;14.22;100.00;98601.28;312163;31;4685;-77
2023/10/27 00:26:14;;;;;;;;;;;;;;;14.22;100.00;98596.88;312988;31;814;-78
2023/10/27 00:26:25;;;;;;;;;;;;;;;14.22;100.00;98596.88;314465;31;3116;-76
2023/10/27 00:26:35;;;;;;;;;;;;;;;14.23;100.00;98592.44;313727;31;3300;-75
2023/10/27 00:26:45;;;;;;;;;;;;;;;14.23;100.00;98603.81;314096;31;858;-75
2023/10/27 00:26:55;;;;;;;;;;;;;;;14.22;100.00;98596.88;306034;31;2557;-74
2023/10/27 00:27:06;;;;;;;;;;;;;;;14.21;100.00;98592.56;307884;31;1733;-74
2023/10/27 00:27:16;;;;;;;;;;;;;;;14.23;100.00;98593.28;305617;32;2488;-74
2023/10/27 00:27:26;;;;;;;;;;;;;;;14.22;100.00;98590.78;303227;32;1232;-74
2023/10/27 00:27:37;;;;;;;;;;;;;;;14.21;100.00;98595.19;303494;32;3779;-74
2023/10/27 00:27:47;;;;;;;;;;;;;;;14.21;100.00;98594.34;303534;32;4078;-74
2023/10/27 00:27:57;;;;;;;;;;;;;;;14.21;100.00;98600.44;304276;32;1335;-74
2023/10/27 00:28:07;;;;;;;;;;;;;;;14.21;100.00;98596.97;303592;32;4146;-75
2023/10/27 00:28:17;;;;;;;;;;;;;;;14.22;100.00;98596.03;301306;32;4388;-74
2023/10/27 00:28:28;;;;;;;;;;;;;;;14.22;100.00;98596.03;300192;32;1341;-76
2023/10/27 00:28:38;;;;;;;;;;;;;;;14.22;100.00;98598.66;300280;32;4169;-75
2023/10/27 00:28:50;;;;;;;;;;;;;;;14.15;100.00;98595.63;299542;32;4738;-75
2023/10/27 00:29:00;;;;;;;;;;;;;;;14.14;100.00;98595.75;297505;33;1721;-75
2023/10/27 00:29:10;;;;;;;;;;;;;;;14.13;100.00;98591.44;295936;33;3607;-75
2023/10/27 00:29:20;;;;;;;;;;;;;;;14.09;100.00;98596.06;295190;33;2787;-75
2023/10/27 00:29:31;;;;;;;;;;;;;;;14.08;100.00;98594.38;291039;33;4422;-75
2023/10/27 00:29:41;;;;;;;;;;;;;;;14.10;100.00;98603.00;288286;34;1329;-75
2023/10/27 00:29:51;;;;;;;;;;;;;;;14.12;100.00;98602.91;288120;33;5535;-75
2023/10/27 00:30:01;;;;;;;;;;;;;;;14.12;100.00;98601.13;286156;34;7042;-74
2023/10/27 00:30:12;;;;;;;;;;;;;;;14.13;100.00;98602.78;287421;34;714;-75
2023/10/27 00:30:22;;;;;;;;;;;;;;;14.13;100.00;98608.06;285777;34;6458;-75
2023/10/27 00:30:32;;;;;;;;;;;;;;;14.13;100.00;98601.94;284050;34;7887;-75
2023/10/27 00:30:43;;;;;;;;;;;;;;;14.12;100.00;98601.13;281852;35;1349;-75
2023/10/27 00:30:53;;;;;;;;;;;;;;;14.14;100.00;98604.47;278539;35;5304;-75
2023/10/27 00:31:03;;;;;;;;;;;;;;;14.13;100.00;98605.44;277493;35;6709;-75
2023/10/27 00:31:13;;;;;;;;;;;;;;;14.14;100.00;98608.91;279163;35;1359;-75
2023/10/27 00:31:24;;;;;;;;;;;;;;;14.16;100.00;98601.72;276116;35;5197;-75
2023/10/27 00:31:34;;;;;;;;;;;;;;;14.15;100.00;98600.91;276803;35;4572;-74
2023/10/27 00:31:44;;;;;;;;;;;;;;;14.15;100.00;98608.78;278381;35;1127;-75
2023/10/27 00:31:54;;;;;;;;;;;;;;;14.16;100.00;98605.22;272576;35;7634;-75
2023/10/27 00:32:05;;;;;;;;;;;;;;;14.16;100.00;98604.38;269571;36;8810;-75
2023/10/27 00:32:15;;;;;;;;;;;;;;;14.15;100.00;98606.16;269136;36;1277;-75
2023/10/27 00:34:33;;;;;;;;;;;;;;;14.14;100.00;98612.38;2502827;27;19937;-74
2023/10/27 00:34:43;;;;;;;;;;;;;;;14.12;100.00;98603.75;354012;27;2524;-75
2023/10/27 00:34:54;;;;;;;;;;;;;;;14.15;100.00;98611.41;350942;28;3274;-75
2023/10/27 00:35:04;;;;;;;;;;;;;;;14.15;100.00;98608.78;349578;28;4704;-76
2023/10/27 00:35:14;;;;;;;;;;;;;;;14.15;100.00;98611.41;350362;28;1314;-75
2023/10/27 00:35:25;;;;;;;;;;;;;;;14.16;100.00;98607.84;350549;28;4786;-75
2023/10/27 00:35:35;;;;;;;;;;;;;;;14.16;100.00;98604.38;351764;28;1229;-75
2023/10/27 00:35:49;;;;;;;;;;;;;;;14.16;100.00;98601.72;351830;28;877;-75
2023/10/27 00:35:59;;;;;;;;;;;;;;;14.16;100.00;98602.56;351613;28;1382;-75
2023/10/27 00:36:09;;;;;;;;;;;;;;;14.15;100.00;98603.53;351672;28;1394;-75
2023/10/27 00:36:20;;;;;;;;;;;;;;;14.14;100.00;98599.22;348461;28;1530;-75
2023/10/27 00:36:30;;;;;;;;;;;;;;;14.15;100.00;98603.53;349967;28;1217;-75
2023/10/27 00:36:40;;;;;;;;;;;;;;;14.16;100.00;98607.84;348910;28;1293;-75
2023/10/27 00:36:50;;;;;;;;;;;;;;;14.15;100.00;98600.91;348892;28;1213;-75
2023/10/27 00:37:00;;;;;;;;;;;;;;;14.15;100.00;98597.41;348810;28;1212;-75
2023/10/27 00:37:11;;;;;;;;;;;;;;;14.16;100.00;98602.56;348925;28;1263;-75
2023/10/27 00:37:21;;;;;;;;;;;;;;;14.15;100.00;98600.91;347580;28;1327;-75
2023/10/27 00:37:34;;;;;;;;;;;;;;;14.16;100.00;98601.72;347540;28;1259;-75
2023/10/27 00:37:44;;;;;;;;;;;;;;;14.14;100.00;98601.84;345223;28;1579;-75
2023/10/27 00:37:55;;;;;;;;;;;;;;;14.13;100.00;98602.78;345971;28;1231;-75
2023/10/27 00:38:05;;;;;;;;;;;;;;;14.13;100.00;98604.59;344897;28;868;-75
2023/10/27 00:38:16;;;;;;;;;;;;;;;14.13;100.00;98597.53;345547;28;1378;-75
2023/10/27 00:38:26;;;;;;;;;;;;;;;14.12;100.00;98601.13;349270;28;1569;-75
2023/10/27 00:38:37;;;;;;;;;;;;;;;14.14;100.00;98603.63;350387;28;1259;-75
2023/10/27 00:38:48;;;;;;;;;;;;;;;14.15;100.00;98600.91;348919;28;1102;-75
2023/10/27 00:38:58;;;;;;;;;;;;;;;14.16;100.00;98602.56;345219;28;1133;-75
2023/10/27 00:39:08;;;;;;;;;;;;;;;14.17;100.00;98595.53;344897;28;883;-75
2023/10/27 00:39:18;;;;;;;;;;;;;;;14.17;100.00;98609.50;346128;28;1330;-75
2023/10/27 00:39:29;;;;;;;;;;;;;;;14.16;100.00;98602.56;346287;28;922;-76
2023/10/27 00:39:39;;;;;;;;;;;;;;;14.18;100.00;98608.56;346251;28;1218;-75
2023/10/27 00:39:49;;;;;;;;;;;;;;;14.15;100.00;98606.16;346298;28;1044;-76
2023/10/27 00:40:00;;;;;;;;;;;;;;;14.16;100.00;98607.84;346047;28;1204;-76
2023/10/27 00:40:10;;;;;;;;;;;;;;;14.16;100.00;98609.63;346495;28;876;-75
2023/10/27 00:40:21;;;;;;;;;;;;;;;14.15;100.00;98613.22;347562;28;897;-75
2023/10/27 00:40:31;;;;;;;;;;;;;;;14.13;100.00;98608.06;344743;28;1271;-75
2023/10/27 00:40:41;;;;;;;;;;;;;;;14.14;100.00;98614.16;345351;28;1315;-75
2023/10/27 00:40:51;;;;;;;;;;;;;;;14.15;100.00;98616.69;346178;28;1216;-75
2023/10/27 00:41:02;;;;;;;;;;;;;;;14.15;100.00;98614.03;348883;28;1120;-75
2023/10/27 00:41:12;;;;;;;;;;;;;;;14.12;100.00;98614.25;344721;28;1311;-75
2023/10/27 00:41:24;;;;;;;;;;;;;;;14.12;100.00;98610.78;343474;28;883;-75
2023/10/27 00:41:34;;;;;;;;;;;;;;;14.13;100.00;98612.47;347521;28;1174;-76
2023/10/27 00:41:44;;;;;;;;;;;;;;;14.13;100.00;98612.47;346229;28;1228;-75
2023/10/27 00:41:55;;;;;;;;;;;;;;;14.13;100.00;98612.47;346395;28;1329;-75
2023/10/27 00:42:05;;;;;;;;;;;;;;;14.12;100.00;98611.63;348925;28;1199;-77
2023/10/27 00:42:17;;;;;;;;;;;;;;;14.12;100.00;98614.25;349890;28;1351;-76
2023/10/27 00:42:27;;;;;;;;;;;;;;;14.12;100.00;98621.31;347430;28;1321;-75
2023/10/27 00:42:38;;;;;;;;;;;;;;;14.11;100.00;98615.22;346129;28;1382;-77
2023/10/27 00:42:48;;;;;;;;;;;;;;;14.12;100.00;98613.44;350297;28;1461;-75
2023/10/27 00:42:58;;;;;;;;;;;;;;;14.12;100.00;98611.63;346335;28;1183;-75
2023/10/27 00:43:08;;;;;;;;;;;;;;;14.10;100.00;98613.53;342663;28;1550;-75
2023/10/27 00:43:19;;;;;;;;;;;;;;;14.10;100.00;98616.16;343514;28;1347;-75
2023/10/27 00:43:29;;;;;;;;;;;;;;;14.12;100.00;98613.44;344688;28;1968;-75
2023/10/27 00:43:39;;;;;;;;;;;;;;;14.11;100.00;98615.22;343778;28;972;-76
2023/10/27 00:43:49;;;;;;;;;;;;;;;14.09;100.00;98611.84;347475;28;1190;-75
2023/10/27 00:44:00;;;;;;;;;;;;;;;14.09;100.00;98611.84;346222;28;3193;-75
2023/10/27 00:44:10;;;;;;;;;;;;;;;14.09;100.00;98611.84;342729;28;3099;-74
2023/10/27 00:44:20;;;;;;;;;;;;;;;14.08;100.00;98614.59;343248;28;2829;-75
2023/10/27 00:44:30;;;;;;;;;;;;;;;14.09;100.00;98613.63;343222;28;1437;-76
2023/10/27 00:44:41;;;;;;;;;;;;;;;14.09;100.00;98614.47;339004;29;3143;-76
2023/10/27 00:44:53;;;;;;;;;;;;;;;14.06;100.00;98612.06;342096;28;1315;-76
2023/10/27 00:45:03;;;;;;;;;;;;;;;14.11;100.00;98609.13;337601;29;1492;-75
2023/10/27 00:45:13;;;;;;;;;;;;;;;14.11;100.00;98615.22;339155;28;2467;-75
2023/10/27 00:45:24;;;;;;;;;;;;;;;14.10;100.00;98610.91;336976;29;2030;-75
2023/10/27 00:45:34;;;;;;;;;;;;;;;14.11;100.00;98612.59;338329;29;877;-75
2023/10/27 00:45:48;;;;;;;;;;;;;;;14.11;100.00;98609.94;339783;28;1576;-75
2023/10/27 00:45:58;;;;;;;;;;;;;;;14.10;100.00;98608.28;337602;29;1390;-75
2023/10/27 00:46:09;;;;;;;;;;;;;;;14.09;100.00;98606.59;339208;28;1565;-75
2023/10/27 00:46:19;;;;;;;;;;;;;;;14.08;100.00;98612.81;337187;29;1587;-76
2023/10/27 00:46:29;;;;;;;;;;;;;;;14.02;100.00;98610.59;336161;29;1879;-75
2023/10/27 00:46:39;;;;;;;;;;;;;;;14.00;100.00;98607.25;334438;29;1947;-75
2023/10/27 00:46:50;;;;;;;;;;;;;;;13.99;100.00;98611.66;335727;29;874;-75
2023/10/27 00:47:00;;;;;;;;;;;;;;;13.99;100.00;98605.56;339232;29;2691;-75
2023/10/27 00:47:11;;;;;;;;;;;;;;;14.00;100.00;98609.88;337188;29;2299;-75
2023/10/27 00:47:21;;;;;;;;;;;;;;;14.01;100.00;98605.44;338318;29;779;-75
2023/10/27 00:47:31;;;;;;;;;;;;;;;14.00;100.00;98601.97;330285;29;2386;-75
2023/10/27 00:47:41;;;;;;;;;;;;;;;14.02;100.00;98609.75;328886;29;2593;-76
2023/10/27 00:47:52;;;;;;;;;;;;;;;14.01;100.00;98611.56;331802;29;1355;-75
2023/10/27 00:48:02;;;;;;;;;;;;;;;14.01;100.00;98608.09;336486;29;1913;-75
2023/10/27 00:48:12;;;;;;;;;;;;;;;14.02;100.00;98605.34;337939;29;1772;-75
2023/10/27 00:48:23;;;;;;;;;;;;;;;14.02;100.00;98605.34;336534;29;2118;-75
2023/10/27 00:48:33;;;;;;;;;;;;;;;14.02;100.00;98609.75;335781;29;802;-75
2023/10/27 00:48:43;;;;;;;;;;;;;;;14.01;100.00;98606.28;335865;29;2568;-75
2023/10/27 00:48:54;;;;;;;;;;;;;;;14.02;100.00;98610.59;333411;29;2838;-75
2023/10/27 00:49:04;;;;;;;;;;;;;;;14.04;100.00;98613.97;330165;29;1303;-76
2023/10/27 00:49:14;;;;;;;;;;;;;;;14.03;100.00;98614.91;327587;30;2552;-75
2023/10/27 00:49:24;;;;;;;;;;;;;;;14.04;100.00;98618.38;324454;29;3271;-75
2023/10/27 00:49:35;;;;;;;;;;;;;;;14.03;100.00;98619.34;324683;30;1321;-75
2023/10/27 00:49:45;;;;;;;;;;;;;;;14.03;100.00;98608.81;323049;30;3510;-75
2023/10/27 00:49:58;;;;;;;;;;;;;;;14.01;100.00;98614.19;322629;30;2861;-75
2023/10/27 00:50:08;;;;;;;;;;;;;;;13.99;100.00;98610.81;322570;30;2603;-75
2023/10/27 00:50:19;;;;;;;;;;;;;;;13.99;100.00;98610.81;320822;30;1427;-75
2023/10/27 00:50:29;;;;;;;;;;;;;;;14.00;100.00;98612.50;319737;30;2360;-75
2023/10/27 00:50:39;;;;;;;;;;;;;;;14.00;100.00;98617.75;318210;30;2877;-75
2023/10/27 00:50:49;;;;;;;;;;;;;;;14.00;100.00;98615.13;312948;31;1221;-75
2023/10/27 00:51:00;;;;;;;;;;;;;;;14.00;100.00;98612.50;314460;31;3599;-75
2023/10/27 00:51:11;;;;;;;;;;;;;;;14.01;100.00;98608.09;314367;31;4188;-75
2023/10/27 00:51:21;;;;;;;;;;;;;;;13.98;100.00;98611.75;315172;31;1400;-75
2023/10/27 00:51:31;;;;;;;;;;;;;;;14.00;100.00;98617.75;307797;31;4044;-75
2023/10/27 00:51:42;;;;;;;;;;;;;;;14.01;100.00;98614.19;311588;31;4399;-75
2023/10/27 00:51:52;;;;;;;;;;;;;;;14.01;100.00;98614.19;315490;31;3962;-75
2023/10/27 00:52:03;;;;;;;;;;;;;;;14.02;100.00;98610.59;315118;31;1387;-75
2023/10/27 00:52:13;;;;;;;;;;;;;;;14.04;100.00;98616.59;309445;31;3767;-75
2023/10/27 00:52:24;;;;;;;;;;;;;;;14.05;100.00;98614.81;310530;31;3691;-75
2023/10/27 00:52:34;;;;;;;;;;;;;;;14.05;100.00;98615.66;308532;32;1369;-75
2023/10/27 00:52:44;;;;;;;;;;;;;;;14.04;100.00;98613.97;307499;31;3047;-75
2023/10/27 00:52:55;;;;;;;;;;;;;;;14.02;100.00;98605.34;306039;32;4111;-74
2023/10/27 00:53:05;;;;;;;;;;;;;;;14.04;100.00;98602.59;306414;32;868;-74
2023/10/27 00:53:17;;;;;;;;;;;;;;;14.05;100.00;98609.53;300773;32;5216;-75
2023/10/27 00:53:27;;;;;;;;;;;;;;;14.05;100.00;98610.38;301533;32;6144;-75
2023/10/27 00:53:37;;;;;;;;;;;;;;;14.06;100.00;98609.44;302018;32;5780;-74
2023/10/27 00:53:47;;;;;;;;;;;;;;;14.06;100.00;98605.97;300016;32;2902;-75
2023/10/27 00:53:58;;;;;;;;;;;;;;;14.07;100.00;98608.50;297912;32;7395;-75
2023/10/27 00:54:11;;;;;;;;;;;;;;;14.07;100.00;98603.22;294261;33;6014;-75
2023/10/27 00:54:21;;;;;;;;;;;;;;;14.07;100.00;98603.22;294022;33;1260;-75
2023/10/27 00:54:31;;;;;;;;;;;;;;;14.07;100.00;98603.22;292696;33;5206;-75
2023/10/27 00:54:43;;;;;;;;;;;;;;;14.07;100.00;98608.50;288199;33;4839;-75
2023/10/27 00:54:54;;;;;;;;;;;;;;;14.06;100.00;98601.53;286418;33;4975;-75
2023/10/27 00:55:05;;;;;;;;;;;;;;;14.08;100.00;98599.66;288666;34;1419;-75
2023/10/27 00:55:15;;;;;;;;;;;;;;;14.08;100.00;98604.91;285131;34;7896;-75
2023/10/27 00:55:26;;;;;;;;;;;;;;;14.08;100.00;98599.66;283589;34;8922;-75
2023/10/27 00:55:36;;;;;;;;;;;;;;;14.09;100.00;98603.13;281809;35;1220;-75
2023/10/27 00:55:46;;;;;;;;;;;;;;;14.10;100.00;98603.00;277839;35;8488;-75
2023/10/27 00:55:57;;;;;;;;;;;;;;;14.07;100.00;98595.34;278404;35;8859;-75
2023/10/27 00:56:07;;;;;;;;;;;;;;;14.05;100.00;98597.22;279099;35;1328;-75
2023/10/27 00:58:16;;;;;;;;;;;;;;;14.03;100.00;98588.59;2503238;27;19937;-75
2023/10/27 00:58:27;;;;;;;;;;;;;;;14.04;100.00;98598.19;354523;27;1360;-75
2023/10/27 00:58:38;;;;;;;;;;;;;;;14.05;100.00;98589.34;353339;28;810;-75
2023/10/27 00:58:48;;;;;;;;;;;;;;;14.03;100.00;98595.66;350415;28;1267;-75
2023/10/27 00:58:59;;;;;;;;;;;;;;;14.03;100.00;98591.25;348822;28;894;-75
2023/10/27 00:59:09;;;;;;;;;;;;;;;14.03;100.00;98593.88;347287;28;1631;-75
2023/10/27 00:59:19;;;;;;;;;;;;;;;14.04;100.00;98587.66;348886;28;1380;-75
2023/10/27 00:59:30;;;;;;;;;;;;;;;14.04;100.00;98590.28;348832;28;1172;-75
2023/10/27 00:59:41;;;;;;;;;;;;;;;14.03;100.00;98591.25;348262;28;1551;-75
2023/10/27 00:59:51;;;;;;;;;;;;;;;14.04;100.00;98595.56;348773;28;1228;-75
2023/10/27 01:00:03;;;;;;;;;;;;;;;14.03;100.00;98591.25;348939;28;831;-75
2023/10/27 01:00:15;;;;;;;;;;;;;;;14.04;100.00;98595.56;348944;28;1246;-75
2023/10/27 01:00:25;;;;;;;;;;;;;;;14.04;100.00;98592.91;348858;28;1443;-75
2023/10/27 01:00:35;;;;;;;;;;;;;;;14.05;100.00;98593.75;350340;28;1223;-75
2023/10/27 01:00:45;;;;;;;;;;;;;;;14.05;100.00;98597.22;348953;28;1225;-75